Latest Weather Observations for Scotts Peak

IDT60801

Issued at 6:35 pm EST Sunday 20 April 2014 (issued every 30 minutes, with the page automatically refreshed every 10 minutes)

About weather observations | Map of weather stations | Latest weather observations for TAS | Other Formats
Station Details ID: 097083 Name: SCOTTS PEAK DAM Lat: -43.04 Lon: 146.27 Height: 408.0 m
Data from the previous 72 hours. | See also: Recent months at Scotts Peak
Date/Time
EST
Temp
°C
App
Temp
°C
Dew
Point
Rel
Hum
%
Delta-T
°C
Wind Press
QNH
hPa
Press
MSL
hPa
Rain
since 9 am
mm
Dir
 
Spd
km/h
Gust
km/h
Spd
kts
Gust
kts
20/06:30pm 6.2 -0.3 4.7 90 0.7 W 28 35 15 19 - - 6.0
20/06:00pm 7.1 -1.2 4.2 82 1.3 W 37 48 20 26 - - 5.4
20/05:30pm 7.2 -1.0 4.7 84 1.1 W 37 46 20 25 - - 5.4
20/05:05pm 7.4 -0.7 5.2 86 1.0 W 37 56 20 30 - - 5.4
20/05:00pm 7.3 -1.2 5.1 86 1.0 W 39 56 21 30 - - 5.4
20/04:33pm 8.1 2.0 6.6 90 0.7 W 28 46 15 25 - - 5.4
20/04:30pm 8.4 3.3 7.5 94 0.4 W 24 35 13 19 - - 5.4
20/04:00pm 8.5 4.2 7.7 95 0.4 W 20 32 11 17 - - 4.8
20/03:30pm 8.7 2.5 7.8 94 0.4 WNW 30 41 16 22 - - 4.4
20/03:00pm 9.3 2.7 8.7 96 0.3 WNW 33 54 18 29 - - 4.4
20/02:56pm 9.1 2.1 8.5 96 0.3 WNW 35 54 19 29 - - 4.4
20/02:30pm 9.3 3.2 8.4 94 0.4 WNW 30 41 16 22 - - 4.0
20/02:03pm 10.0 3.2 9.1 94 0.5 W 35 54 19 29 - - 4.0
20/02:00pm 10.2 4.0 9.3 94 0.5 W 32 48 17 26 - - 4.0
20/01:46pm 10.1 2.2 9.3 95 0.4 W 41 59 22 32 - - 4.0
20/01:32pm 10.5 2.7 9.9 96 0.3 W 41 76 22 41 - - 3.0
20/01:30pm 10.5 1.1 10.0 97 0.3 NW 50 76 27 41 - - 2.8
20/01:02pm 10.5 3.1 9.7 95 0.4 NW 39 63 21 34 - - 1.2
20/01:00pm 10.6 3.6 10.0 96 0.3 NW 37 50 20 27 - - 1.2
20/12:33pm 10.1 1.5 9.0 93 0.6 NW 44 63 24 34 - - 1.0
20/12:30pm 10.2 1.9 9.4 95 0.4 NW 43 57 23 31 - - 1.0
20/12:00pm 11.0 2.1 9.1 88 1.0 WNW 46 65 25 35 - - 0.2
20/11:56am 10.9 2.5 8.8 87 1.1 WNW 43 65 23 35 - - 0.2
20/11:47am 10.7 3.5 9.3 91 0.7 WNW 37 52 20 28 - - 0.2
20/11:30am 10.3 4.5 9.5 95 0.4 NNW 30 39 16 21 - - 0.0
20/11:02am 10.2 3.6 8.6 90 0.8 NW 33 54 18 29 - - 0.0
20/11:00am 10.1 3.7 8.5 90 0.8 NW 32 43 17 23 - - 0.0
20/10:30am 10.0 3.2 7.9 87 1.0 WNW 33 43 18 23 - - 0.0
20/10:20am 9.7 2.6 8.1 90 0.8 WNW 35 54 19 29 - - 0.0
20/10:00am 9.5 3.8 8.3 92 0.6 WNW 28 41 15 22 - - 0.0
20/09:52am 9.4 3.7 8.5 94 0.4 WNW 28 41 15 22 - - 0.0
20/09:30am 9.1 1.7 8.5 96 0.3 NNW 37 46 20 25 - - 0.0
20/09:00am 9.2 2.7 8.9 98 0.2 NNW 33 43 18 23 - - 3.4
20/08:30am 8.5 3.2 8.4 99 0.0 NNW 26 32 14 17 - - 3.4
20/08:00am 7.8 3.5 7.7 99 0.0 NW 20 28 11 15 - - 3.0
20/07:30am 7.4 2.2 7.3 99 0.0 NNW 24 30 13 16 - - 3.0
20/07:00am 7.4 1.5 7.3 99 0.0 N 28 33 15 18 - - 2.2
20/06:30am 7.1 0.1 6.8 98 0.1 N 33 39 18 21 - - 2.0
20/06:00am 6.8 -0.1 6.5 98 0.1 NNW 32 37 17 20 - - 2.0
20/05:30am 6.8 -0.1 6.4 97 0.2 NNW 32 37 17 20 - - 2.0
20/05:00am 6.6 -0.4 6.2 97 0.2 N 32 39 17 21 - - 2.0
20/04:30am 6.6 -0.4 6.0 96 0.3 N 32 37 17 20 - - 2.0
20/04:00am 6.4 -0.3 5.5 94 0.4 NNW 30 37 16 20 - - 2.0
20/03:30am 6.4 0.1 5.5 94 0.4 N 28 35 15 19 - - 2.0
20/03:00am 6.2 0.6 5.3 94 0.4 N 24 32 13 17 - - 2.0
20/02:30am 6.2 -0.1 5.5 95 0.3 N 28 35 15 19 - - 2.0
20/02:00am 6.1 0.5 5.4 95 0.3 N 24 30 13 16 - - 2.0
20/01:30am 6.2 0.2 5.5 95 0.3 N 26 33 14 18 - - 1.8
20/01:00am 6.3 1.5 5.6 95 0.3 NNW 20 26 11 14 - - 1.8
20/12:30am 6.0 2.7 4.8 92 0.5 WNW 11 15 6 8 - - 1.8
20/12:00am 6.1 0.7 4.6 90 0.7 WNW 22 26 12 14 - - 1.8
 
Date/Time
EST
Temp
°C
App
Temp
°C
Dew
Point
Rel
Hum
%
Delta-T
°C
Wind Press
QNH
hPa
Press
MSL
hPa
Rain
since 9 am
mm
Dir
 
Spd
km/h
Gust
km/h
Spd
kts
Gust
kts
19/11:30pm 6.5 2.7 3.8 83 1.2 WNW 13 17 7 9 - - 1.8
19/11:00pm 6.4 2.2 3.9 84 1.1 WNW 15 17 8 9 - - 1.8
19/10:30pm 6.3 2.1 4.0 85 1.0 W 15 19 8 10 - - 1.8
19/10:00pm 6.2 2.9 4.5 89 0.8 NW 11 19 6 10 - - 1.8
19/09:30pm 6.3 1.3 4.5 88 0.8 NW 20 24 11 13 - - 1.8
19/09:00pm 6.1 -0.8 4.7 91 0.6 NNW 30 35 16 19 - - 1.8
19/08:30pm 5.7 -0.1 4.3 91 0.6 NW 24 28 13 15 - - 1.8
19/08:00pm 6.2 0.8 4.4 88 0.8 NW 22 26 12 14 - - 1.8
19/07:30pm 6.0 0.2 4.5 90 0.7 WNW 24 30 13 16 - - 1.8
19/07:00pm 6.2 0.7 4.2 87 0.9 WNW 22 28 12 15 - - 1.8
19/06:30pm 5.8 0.8 4.8 93 0.4 WNW 20 28 11 15 - - 1.8
19/06:00pm 6.2 1.3 5.2 93 0.4 WNW 20 28 11 15 - - 1.8
19/05:30pm 6.9 0.6 5.5 91 0.6 NW 28 35 15 19 - - 1.8
19/05:00pm 7.3 3.1 5.6 89 0.8 WNW 17 20 9 11 - - 1.8
19/04:30pm 7.4 3.3 6.0 91 0.6 NW 17 20 9 11 - - 1.8
19/04:00pm 7.5 3.7 5.6 88 0.9 W 15 17 8 9 - - 1.8
19/03:30pm 7.5 3.6 5.3 86 1.0 WSW 15 26 8 14 - - 1.8
19/03:00pm 6.9 2.2 6.0 94 0.4 WSW 20 30 11 16 - - 1.8
19/02:30pm 9.2 4.9 7.2 87 1.0 WSW 19 30 10 16 - - 1.8
19/02:00pm 7.4 2.4 6.3 93 0.5 WNW 22 30 12 16 - - 1.8
19/01:30pm 7.6 2.9 6.1 90 0.7 WNW 20 26 11 14 - - 1.0
19/01:00pm 8.8 4.7 7.9 94 0.4 W 19 24 10 13 - - 1.0
19/12:30pm 7.3 2.1 5.6 89 0.8 WSW 22 30 12 16 - - 1.0
19/12:00pm 7.3 2.1 5.4 88 0.9 WSW 22 32 12 17 - - 1.0
19/11:30am 8.4 4.2 7.5 94 0.4 WSW 19 28 10 15 - - 1.0
19/11:00am 7.3 1.9 6.4 94 0.4 W 24 35 13 19 - - 0.8
19/10:30am 6.6 2.0 5.6 93 0.5 WSW 19 32 10 17 - - 0.8
19/10:00am 7.1 3.0 6.0 93 0.5 WNW 17 22 9 12 - - 0.2
19/09:30am 7.1 2.8 5.3 88 0.8 WSW 17 28 9 15 - - 0.0
19/09:00am 6.9 3.0 5.4 90 0.7 W 15 24 8 13 - - 12.2
19/08:30am 6.2 1.5 5.2 93 0.4 SW 19 26 10 14 - - 12.2
19/08:00am 6.1 2.9 5.2 94 0.4 WSW 11 17 6 9 - - 11.6
19/07:30am 5.9 1.5 5.0 94 0.4 SW 17 28 9 15 - - 11.6
19/07:00am 5.6 0.8 4.7 94 0.4 W 19 26 10 14 - - 11.6
19/06:30am 5.8 0.5 4.8 93 0.4 SW 22 39 12 21 - - 10.8
19/06:00am 5.8 1.0 4.9 94 0.4 SW 19 33 10 18 - - 9.8
19/05:30am 6.0 1.9 4.5 90 0.7 SW 15 24 8 13 - - 9.4
19/05:00am 5.9 0.5 4.7 92 0.5 W 22 39 12 21 - - 9.4
19/04:30am 5.9 0.9 4.7 92 0.5 WSW 20 44 11 24 - - 9.4
19/04:00am 6.0 1.9 4.5 90 0.7 WNW 15 26 8 14 - - 8.8
19/03:30am 6.0 2.0 5.0 93 0.4 SW 15 22 8 12 - - 8.8
19/03:00am 6.1 1.7 4.7 91 0.6 W 17 32 9 17 - - 8.0
19/02:30am 6.4 3.2 5.0 91 0.6 W 11 24 6 13 - - 7.8
19/02:00am 6.2 1.2 4.8 91 0.6 W 20 32 11 17 - - 7.8
19/01:44am 6.1 -0.4 4.6 90 0.7 WNW 28 43 15 23 - - 7.8
19/01:30am 6.3 3.4 4.6 89 0.8 SW 9 20 5 11 - - 7.4
19/01:00am 6.2 3.9 4.7 90 0.7 ESE 6 20 3 11 - - 7.0
19/12:30am 6.4 2.7 4.6 88 0.8 WSW 13 30 7 16 - - 7.0
19/12:00am 6.5 1.8 5.0 90 0.7 NW 19 33 10 18 - - 6.8
 
Date/Time
EST
Temp
°C
App
Temp
°C
Dew
Point
Rel
Hum
%
Delta-T
°C
Wind Press
QNH
hPa
Press
MSL
hPa
Rain
since 9 am
mm
Dir
 
Spd
km/h
Gust
km/h
Spd
kts
Gust
kts
18/11:30pm 6.5 0.9 5.5 93 0.5 W 24 35 13 19 - - 6.8
18/11:00pm 6.5 1.7 4.7 88 0.8 W 19 30 10 16 - - 6.6
18/10:30pm 7.1 2.2 4.2 82 1.3 WSW 19 33 10 18 - - 6.4
18/10:04pm 7.0 0.5 4.5 84 1.1 WNW 28 46 15 25 - - 6.4
18/10:00pm 6.7 1.3 4.7 87 0.9 WNW 22 46 12 25 - - 6.4
18/09:30pm 6.9 2.1 4.9 87 0.9 W 19 33 10 18 - - 6.4
18/09:00pm 6.5 3.6 4.5 87 0.9 WSW 9 35 5 19 - - 6.4
18/08:30pm 6.4 -1.5 4.4 87 0.9 W 35 50 19 27 - - 6.4
18/08:13pm 6.7 0.3 5.3 91 0.6 W 28 52 15 28 - - 6.0
18/08:00pm 7.1 1.5 5.3 88 0.8 W 24 41 13 22 - - 5.6
18/07:30pm 7.2 0.0 5.2 87 0.9 W 32 44 17 24 - - 5.6
18/07:00pm 7.2 0.1 5.5 89 0.8 WSW 32 50 17 27 - - 5.6
18/06:55pm 7.3 1.4 5.8 90 0.7 SW 26 50 14 27 - - 5.6
18/06:30pm 7.5 -0.5 5.5 87 0.9 W 37 63 20 34 - - 5.4
18/06:22pm 7.5 0.8 5.8 89 0.8 W 30 52 16 28 - - 5.2
18/06:00pm 7.0 0.7 5.8 92 0.6 W 28 39 15 21 - - 5.2
18/05:30pm 7.3 -0.3 5.8 90 0.7 W 35 50 19 27 - - 4.8
18/05:06pm 7.2 -0.9 5.2 87 0.9 W 37 59 20 32 - - 4.2
18/05:00pm 7.1 -1.0 5.1 87 0.9 W 37 50 20 27 - - 4.2
18/04:33pm 7.3 1.0 5.6 89 0.8 W 28 56 15 30 - - 3.6
18/04:30pm 7.4 2.2 5.5 88 0.9 W 22 56 12 30 - - 3.6
18/04:00pm 7.5 -0.3 5.0 84 1.1 WSW 35 56 19 30 - - 3.2
18/03:59pm 7.6 -0.6 4.9 83 1.2 WSW 37 56 20 30 - - 2.8
18/03:30pm 9.3 2.1 5.1 75 1.9 WNW 32 54 17 29 - - 2.8
18/03:00pm 8.2 0.2 5.5 83 1.2 W 37 57 20 31 - - 2.8
18/02:46pm 8.4 -0.7 5.7 83 1.3 WNW 43 61 23 33 - - 2.6
18/02:42pm 9.3 1.1 4.7 73 2.1 W 37 54 20 29 - - 2.6
18/02:30pm 11.8 4.9 7.3 74 2.2 NW 33 39 18 21 - - 2.6
18/02:22pm 11.8 5.1 8.1 78 1.9 WNW 33 39 18 21 - - 2.6
18/02:00pm 11.0 2.4 6.7 75 2.1 W 41 52 22 28 - - 2.6
18/01:46pm 10.5 3.0 6.3 75 2.0 W 35 54 19 29 - - 2.6
18/01:40pm 10.5 2.9 7.6 82 1.4 W 37 46 20 25 - - 2.6
18/01:30pm 10.0 2.3 7.3 83 1.3 WNW 37 50 20 27 - - 2.6
18/01:03pm 8.8 1.7 6.2 84 1.2 WNW 33 54 18 29 - - 2.4
18/01:00pm 8.9 2.4 6.7 86 1.0 WNW 30 43 16 23 - - 2.4
18/12:30pm 8.4 0.3 6.9 90 0.7 W 39 57 21 31 - - 1.8
18/12:17pm 8.2 0.0 6.7 90 0.7 WNW 39 59 21 32 - - 1.2
18/12:00pm 8.8 0.4 7.3 90 0.7 WNW 41 50 22 27 - - 1.2
18/11:30am 8.1 -0.3 7.5 96 0.3 NW 41 48 22 26 - - 1.0
18/11:16am 7.8 0.1 7.1 95 0.3 NW 37 54 20 29 - - 1.0
18/11:00am 8.1 2.5 7.3 95 0.4 NW 26 30 14 16 - - 0.8
18/10:30am 8.3 2.8 7.5 95 0.4 NNW 26 33 14 18 - - 0.6
18/10:00am 7.8 0.3 6.1 89 0.8 WNW 35 48 19 26 - - 0.4
18/09:56am 7.9 0.4 6.4 90 0.7 WNW 35 48 19 26 - - 0.4
18/09:30am 8.2 -1.8 6.0 86 1.0 W 48 61 26 33 - - 0.0
18/09:00am 8.2 -3.4 5.8 85 1.1 W 56 80 30 43 - - 1.0
18/08:35am 8.5 -3.4 7.1 91 0.7 W 59 78 32 42 - - 0.8
18/08:30am 9.3 -2.1 7.7 90 0.8 W 57 76 31 41 - - 0.6
18/08:23am 10.9 0.6 9.8 93 0.6 NNW 54 72 29 39 - - 0.4
18/08:22am 10.9 1.4 9.7 92 0.6 NNW 50 56 27 30 - - 0.4
18/08:00am 11.6 6.1 9.2 85 1.2 N 28 35 15 19 - - 0.0
18/07:30am 11.9 5.4 9.1 83 1.4 NNW 33 41 18 22 - - 0.0
18/07:00am 12.2 4.4 8.3 77 2.0 NNW 39 50 21 27 - - 0.0
18/06:30am 12.0 3.4 8.3 78 1.9 NNW 43 50 23 27 - - 0.0
18/06:04am 12.1 3.9 8.2 77 2.0 NNW 41 59 22 32 - - 0.0
18/06:00am 12.2 4.4 8.3 77 2.0 NNW 39 48 21 26 - - 0.0
18/05:30am 12.0 7.1 8.3 78 1.9 NNW 24 39 13 21 - - 0.0
18/05:00am 12.1 6.3 8.0 76 2.1 NNW 28 43 15 23 - - 0.0
18/04:30am 12.1 5.0 8.2 77 2.0 NNW 35 46 19 25 - - 0.0
18/04:00am 12.7 5.0 8.6 76 2.1 NNW 39 50 21 27 - - 0.0
18/03:49am 12.9 6.9 8.6 75 2.2 NW 30 50 16 27 - - 0.0
18/03:30am 13.0 7.3 8.5 74 2.3 NW 28 35 15 19 - - 0.0
18/03:00am 13.0 5.3 8.5 74 2.3 NNW 39 50 21 27 - - 0.0
18/02:30am 13.2 5.1 8.5 73 2.4 NNW 41 56 22 30 - - 0.0
18/02:23am 13.2 5.5 8.5 73 2.4 NNW 39 54 21 29 - - 0.0
18/02:00am 12.9 7.3 8.6 75 2.2 NNW 28 33 15 18 - - 0.0
18/01:30am 12.8 7.2 8.7 76 2.1 N 28 33 15 18 - - 0.0
18/01:00am 13.0 7.9 9.1 77 2.0 NNW 26 32 14 17 - - 0.0
18/12:30am 12.7 8.1 9.7 82 1.6 NNW 24 30 13 16 - - 0.0
18/12:00am 12.7 8.4 9.2 79 1.8 N 22 28 12 15 - - 0.0
 
Date/Time
EST
Temp
°C
App
Temp
°C
Dew
Point
Rel
Hum
%
Delta-T
°C
Wind Press
QNH
hPa
Press
MSL
hPa
Rain
since 9 am
mm
Dir
 
Spd
km/h
Gust
km/h
Spd
kts
Gust
kts
17/11:30pm 13.2 8.6 9.5 78 1.9 NNW 24 30 13 16 - - 0.0
17/11:00pm 13.2 9.1 10.0 81 1.7 N 22 30 12 16 - - 0.0
17/10:30pm 13.1 9.1 10.5 84 1.4 N 22 26 12 14 - - 0.0
17/10:00pm 13.0 9.9 10.2 83 1.5 NNW 17 20 9 11 - - 0.0
17/09:30pm 12.8 9.1 10.2 84 1.4 N 20 24 11 13 - - 0.0
17/09:00pm 13.3 10.6 10.3 82 1.6 N 15 20 8 11 - - 0.0
17/08:30pm 13.4 10.0 10.4 82 1.6 N 19 22 10 12 - - 0.0
17/08:00pm 13.0 10.2 10.0 82 1.6 NNW 15 20 8 11 - - 0.0
17/07:30pm 12.3 9.7 9.3 82 1.5 NNW 13 17 7 9 - - 0.0
17/07:00pm 12.6 9.8 8.5 76 2.1 NNW 13 17 7 9 - - 0.0

Other Formats:

Comma delimited format used in spreadsheet applications
http://www.bom.gov.au/fwo/IDT60801/IDT60801.95958.axf

JavaScript Object Notation format (JSON) in row-major order
http://www.bom.gov.au/fwo/IDT60801/IDT60801.95958.json